createdAt,value
2018-10-07T00:00:24.725Z,95608.25
2018-10-07T00:02:54.201Z,95605.66
2018-10-07T00:05:24.211Z,95608.13
2018-10-07T00:07:53.807Z,95599.90
2018-10-07T00:10:23.297Z,95598.54
2018-10-07T00:12:53.707Z,95598.95
2018-10-07T00:15:23.165Z,95602.70
2018-10-07T00:17:52.831Z,95595.59
2018-10-07T00:20:22.882Z,95584.03
2018-10-07T00:22:54.326Z,95581.43
2018-10-07T00:25:24.044Z,95581.19
2018-10-07T00:27:53.579Z,95572.33
2018-10-07T00:30:23.199Z,95576.24
2018-10-07T00:50:15.669Z,95536.75
2018-10-07T00:52:45.778Z,95541.98
2018-10-07T01:12:37.274Z,95524.66
2018-10-07T01:15:07.043Z,95531.31
2018-10-07T01:17:36.470Z,95534.61
2018-10-07T01:20:06.330Z,95532.84
2018-10-07T01:22:35.789Z,95535.52
2018-10-07T01:25:05.503Z,95521.73
2018-10-07T01:27:36.047Z,95520.56
2018-10-07T01:30:05.894Z,95518.47
2018-10-07T01:32:35.247Z,95520.00
2018-10-07T01:35:04.970Z,95512.97
2018-10-07T01:37:34.307Z,95517.41
2018-10-07T01:40:03.735Z,95507.41
2018-10-07T01:42:33.353Z,95509.77
2018-10-07T01:45:02.945Z,95509.72
2018-10-07T01:47:32.399Z,95510.33
2018-10-07T01:50:02.300Z,95511.23
2018-10-07T01:52:31.822Z,95510.27
2018-10-07T01:55:01.266Z,95503.86
2018-10-07T01:57:31.071Z,95509.88
2018-10-07T02:17:23.790Z,95497.53
2018-10-07T02:19:53.490Z,95495.19
2018-10-07T02:22:23.159Z,95493.15
2018-10-07T02:42:15.635Z,95490.81
2018-10-07T02:44:45.134Z,95486.00
2018-10-07T02:47:14.478Z,95491.08
2018-10-07T02:49:44.023Z,95491.55
2018-10-07T03:09:35.030Z,95487.91
2018-10-07T03:12:04.717Z,95488.37
2018-10-07T03:14:34.026Z,95490.98
2018-10-07T03:17:03.632Z,95481.72
2018-10-07T03:19:33.318Z,95481.69
2018-10-07T03:22:02.919Z,95483.50
2018-10-07T03:24:32.363Z,95482.09
2018-10-07T03:27:02.106Z,95477.95
2018-10-07T03:29:31.634Z,95480.40
2018-10-07T03:32:01.357Z,95473.53
2018-10-07T03:34:31.259Z,95474.34
2018-10-07T03:37:00.753Z,95476.96
2018-10-07T03:39:30.210Z,95470.86
2018-10-07T03:41:59.853Z,95470.83
2018-10-07T03:44:29.377Z,95473.11
2018-10-07T03:46:58.970Z,95470.09
2018-10-07T03:49:28.765Z,95470.49
2018-10-07T03:51:58.488Z,95472.57
2018-10-07T03:54:28.375Z,95473.69
2018-10-07T03:56:58.566Z,95474.66
2018-10-07T03:59:28.339Z,95471.27
2018-10-07T04:01:58.462Z,95464.95
2018-10-07T04:21:56.294Z,95465.47
2018-10-07T04:24:33.354Z,95472.36
2018-10-07T04:27:03.285Z,95461.62
2018-10-07T04:29:32.991Z,95464.59
2018-10-07T04:32:02.788Z,95465.20
2018-10-07T04:34:32.455Z,95467.44
2018-10-07T04:37:02.340Z,95468.72
2018-10-07T04:39:32.189Z,95464.23
2018-10-07T04:42:02.427Z,95465.70
2018-10-07T04:44:32.131Z,95467.16
2018-10-07T04:47:01.943Z,95475.93
2018-10-07T04:49:32.012Z,95473.05
2018-10-07T05:09:24.289Z,95487.73
2018-10-07T05:46:39.106Z,95484.91
2018-10-07T05:49:08.913Z,95477.73
2018-10-07T05:51:38.610Z,95478.20
2018-10-07T05:54:08.279Z,95474.81
2018-10-07T05:56:37.847Z,95474.53
2018-10-07T05:59:07.814Z,95472.31
2018-10-07T06:01:40.208Z,95465.48
2018-10-07T06:04:44.930Z,95473.79
2018-10-07T06:07:15.013Z,95473.42
2018-10-07T06:09:45.218Z,95476.59
2018-10-07T06:29:37.321Z,95467.05
2018-10-07T06:49:29.608Z,95467.38
2018-10-07T06:51:59.618Z,95469.67
2018-10-07T06:54:29.345Z,95469.21
2018-10-07T06:56:59.092Z,95466.16
2018-10-07T06:59:29.308Z,95457.98
2018-10-07T07:01:59.205Z,95456.48
2018-10-07T07:04:28.854Z,95455.88
2018-10-07T07:06:58.472Z,95452.19
2018-10-07T07:09:28.130Z,95454.56
2018-10-07T07:11:57.922Z,95454.85
2018-10-07T07:14:27.811Z,95459.13
2018-10-07T07:16:57.427Z,95453.58
2018-10-07T07:19:26.865Z,95452.87
2018-10-07T07:21:56.902Z,95454.10
2018-10-07T07:24:26.504Z,95452.25
2018-10-07T07:26:56.158Z,95457.55
2018-10-07T07:29:26.254Z,95447.34
2018-10-07T07:49:19.251Z,95427.06
2018-10-07T07:51:49.353Z,95430.34
2018-10-07T07:54:19.035Z,95430.13
2018-10-07T07:56:48.936Z,95427.78
2018-10-07T07:59:19.035Z,95426.00
2018-10-07T08:01:48.631Z,95422.59
2018-10-07T08:04:18.576Z,95413.11
2018-10-07T08:06:49.093Z,95408.42
2018-10-07T08:09:18.732Z,95402.34
2018-10-07T08:11:48.637Z,95403.92
2018-10-07T08:14:18.490Z,95398.16
2018-10-07T08:16:48.171Z,95397.09
2018-10-07T08:19:17.981Z,95394.98
2018-10-07T08:21:48.119Z,95395.77
2018-10-07T08:24:17.622Z,95394.72
2018-10-07T08:26:47.203Z,95387.08
2018-10-07T08:29:17.266Z,95384.69
2018-10-07T08:49:09.555Z,95366.34
2018-10-07T08:51:39.550Z,95367.34
2018-10-07T08:54:09.361Z,95358.23
2018-10-07T08:56:38.883Z,95368.13
2018-10-07T08:59:08.651Z,95359.90
2018-10-07T09:01:38.142Z,95361.68
2018-10-07T09:04:07.687Z,95348.52
2018-10-07T09:06:37.497Z,95339.00
2018-10-07T09:09:09.091Z,95342.70
2018-10-07T09:11:39.061Z,95346.33
2018-10-07T09:14:08.647Z,95338.62
2018-10-07T09:48:28.658Z,95284.25
2018-10-07T09:50:58.596Z,95277.88
2018-10-07T09:53:28.035Z,95274.38
2018-10-07T09:55:57.523Z,95243.84
2018-10-07T09:58:27.279Z,95266.92
2018-10-07T10:00:56.902Z,95268.98
2018-10-07T10:03:26.611Z,95270.34
2018-10-07T10:05:56.619Z,95264.66
2018-10-07T10:08:26.560Z,95255.15
2018-10-07T10:10:56.196Z,95254.89
2018-10-07T10:13:25.909Z,95248.52
2018-10-07T10:15:55.577Z,95248.93
2018-10-07T10:18:31.683Z,95245.71
2018-10-07T10:21:05.302Z,95235.95
2018-10-07T10:24:44.722Z,95234.94
2018-10-07T10:28:25.855Z,95226.02
2018-10-07T10:31:31.723Z,95218.72
2018-10-07T10:35:09.093Z,95215.77
2018-10-07T10:37:43.227Z,95210.50
2018-10-07T10:40:22.678Z,95206.43
2018-10-07T10:42:55.322Z,95204.52
2018-10-07T10:45:35.241Z,95200.05
2018-10-07T10:48:14.598Z,95194.84
2018-10-07T10:51:58.874Z,95183.37
2018-10-07T10:54:38.787Z,95181.84
2018-10-07T10:57:14.437Z,95178.75
2018-10-07T11:00:21.824Z,95183.48
2018-10-07T11:04:08.220Z,95178.11
2018-10-07T11:06:50.851Z,95161.98
2018-10-07T11:09:41.209Z,95156.56
2018-10-07T11:12:37.269Z,95150.31
2018-10-07T11:15:19.478Z,95144.81
2018-10-07T11:18:00.491Z,95146.66
2018-10-07T11:38:14.597Z,95116.92
2018-10-07T11:41:08.991Z,95117.09
2018-10-07T11:43:55.698Z,95109.73
2018-10-07T11:47:01.263Z,95115.89
2018-10-07T11:49:36.699Z,95111.84
2018-10-07T12:09:30.206Z,95076.98
2018-10-07T12:11:59.893Z,95080.96
2018-10-07T12:14:29.454Z,95077.56
2018-10-07T12:16:59.217Z,95072.02
2018-10-07T12:19:28.933Z,95075.08
2018-10-07T12:21:58.726Z,95073.59
2018-10-07T12:24:28.789Z,95070.89
2018-10-07T12:26:58.451Z,95065.77
2018-10-07T12:29:28.152Z,95053.75
2018-10-07T12:31:58.369Z,95047.81
2018-10-07T12:34:28.326Z,95048.88
2018-10-07T12:36:57.919Z,95047.83
2018-10-07T12:39:28.056Z,95046.63
2018-10-07T12:41:57.637Z,95042.36
2018-10-07T12:44:27.433Z,95039.17
2018-10-07T12:46:57.028Z,95044.66
2018-10-07T12:49:26.682Z,95043.62
2018-10-07T12:51:56.286Z,95037.91
2018-10-07T12:54:25.977Z,95035.46
2018-10-07T12:56:55.706Z,95020.17
2018-10-07T12:59:25.237Z,95026.21
2018-10-07T13:01:55.363Z,95025.83
2018-10-07T13:04:25.042Z,95016.37
2018-10-07T13:06:54.754Z,95020.91
2018-10-07T13:09:24.820Z,95015.77
2018-10-07T13:11:54.403Z,95018.64
2018-10-07T13:14:24.079Z,95015.00
2018-10-07T13:16:54.215Z,95013.59
2018-10-07T13:19:23.871Z,95003.00
2018-10-07T13:21:53.529Z,95001.81
2018-10-07T13:24:23.330Z,95003.00
2018-10-07T13:50:02.344Z,94996.83
2018-10-07T13:52:31.943Z,94991.42
2018-10-07T13:55:01.598Z,94988.55
2018-10-07T14:14:53.633Z,94977.72
2018-10-07T14:17:23.170Z,94973.31
2018-10-07T14:19:52.835Z,94976.98
2018-10-07T14:22:22.865Z,94980.59
2018-10-07T14:24:52.449Z,94982.44
2018-10-07T14:27:22.069Z,94981.06
2018-10-07T14:29:52.605Z,94984.83
2018-10-07T14:32:22.232Z,94984.64
2018-10-07T14:34:51.706Z,94980.04
2018-10-07T14:48:27.658Z,94983.38
2018-10-07T14:50:57.342Z,94987.84
2018-10-07T14:53:27.273Z,94985.95
2018-10-07T14:55:57.191Z,94981.85
2018-10-07T14:58:27.094Z,94982.05
2018-10-07T15:00:56.620Z,94987.94
2018-10-07T15:03:26.035Z,94979.80
2018-10-07T15:05:55.549Z,94994.53
2018-10-07T15:08:25.175Z,94985.72
2018-10-07T15:10:54.801Z,94987.39
2018-10-07T15:13:24.449Z,94970.63
2018-10-07T15:15:54.260Z,94994.02
2018-10-07T15:18:23.683Z,94994.08
2018-10-07T15:20:53.262Z,94987.30
2018-10-07T15:23:22.818Z,94991.50
2018-10-07T15:25:52.495Z,94993.66
2018-10-07T15:28:22.291Z,94995.20
2018-10-07T15:30:52.681Z,94997.35
2018-10-07T15:33:22.866Z,95000.40
2018-10-07T15:35:52.515Z,95007.12
2018-10-07T15:38:22.172Z,95005.44
2018-10-07T15:40:52.303Z,95013.09
2018-10-07T15:43:22.073Z,95014.49
2018-10-07T15:45:51.585Z,95012.30
2018-10-07T15:48:21.665Z,95009.22
2018-10-07T15:50:51.241Z,95010.94
2018-10-07T15:53:20.910Z,95018.46
2018-10-07T15:55:51.668Z,95014.05
2018-10-07T15:58:21.336Z,95018.92
2018-10-07T16:00:51.042Z,95020.72
2018-10-07T16:03:21.866Z,95028.09
2018-10-07T16:05:51.575Z,95031.00
2018-10-07T16:08:21.209Z,95032.67
2018-10-07T16:10:51.910Z,95035.66
2018-10-07T16:13:21.434Z,95033.47
2018-10-07T16:15:50.965Z,95041.20
2018-10-07T16:18:20.636Z,95049.36
2018-10-07T16:20:50.123Z,95052.97
2018-10-07T16:23:19.907Z,95053.09
2018-10-07T16:25:49.891Z,95057.78
2018-10-07T16:28:19.761Z,95065.92
2018-10-07T16:30:49.553Z,95067.38
2018-10-07T16:33:19.511Z,95070.57
2018-10-07T16:35:49.278Z,95074.81
2018-10-07T16:38:18.989Z,95077.77
2018-10-07T16:40:48.718Z,95082.91
2018-10-07T16:43:18.506Z,95089.02
2018-10-07T16:45:49.500Z,95087.93
2018-10-07T16:48:19.125Z,95088.41
2018-10-07T16:50:48.698Z,95089.71
2018-10-07T16:53:18.617Z,95098.16
2018-10-07T16:55:48.216Z,95106.56
2018-10-07T16:58:17.913Z,95105.02
2018-10-07T17:00:47.675Z,95103.77
2018-10-07T17:03:17.271Z,95105.03
2018-10-07T17:05:47.002Z,95108.97
2018-10-07T17:08:16.857Z,95113.92
2018-10-07T17:10:46.664Z,95117.60
2018-10-07T17:13:16.239Z,95123.17
2018-10-07T17:15:46.224Z,95123.55
2018-10-07T17:18:16.939Z,95123.98
2018-10-07T17:20:48.712Z,95128.63
2018-10-07T17:23:18.700Z,95129.23
2018-10-07T17:25:48.753Z,95128.23
2018-10-07T17:28:18.842Z,95137.61
2018-10-07T17:30:48.546Z,95137.16
2018-10-07T17:33:18.294Z,95138.90
2018-10-07T17:35:48.347Z,95132.64
2018-10-07T17:38:18.295Z,95138.13
2018-10-07T17:40:48.048Z,95145.24
2018-10-07T17:43:17.964Z,95143.03
2018-10-07T17:45:47.853Z,95138.30
2018-10-07T17:48:17.389Z,95145.36
2018-10-07T17:50:47.351Z,95155.33
2018-10-07T17:53:17.060Z,95159.53
2018-10-07T17:55:46.598Z,95163.37
2018-10-07T17:58:16.490Z,95167.28
2018-10-07T18:00:45.999Z,95165.66
2018-10-07T18:03:15.553Z,95168.52
2018-10-07T18:05:45.954Z,95167.47
2018-10-07T18:08:15.384Z,95178.12
2018-10-07T18:10:45.047Z,95174.44
2018-10-07T18:13:15.019Z,95178.58
2018-10-07T18:15:44.862Z,95190.08
2018-10-07T18:18:14.396Z,95184.67
2018-10-07T18:20:44.563Z,95192.35
2018-10-07T18:23:14.289Z,95190.38
2018-10-07T18:25:44.251Z,95197.42
2018-10-07T18:28:14.494Z,95192.50
2018-10-07T18:30:44.296Z,95198.91
2018-10-07T18:33:14.371Z,95191.70
2018-10-07T18:35:44.001Z,95196.47
2018-10-07T18:38:13.854Z,95209.17
2018-10-07T18:40:43.443Z,95208.02
2018-10-07T18:43:13.432Z,95208.30
2018-10-07T18:45:42.946Z,95211.11
2018-10-07T18:48:12.613Z,95211.09
2018-10-07T18:50:42.384Z,95218.27
2018-10-07T18:53:12.278Z,95211.97
2018-10-07T18:55:41.855Z,95215.84
2018-10-07T18:58:11.998Z,95217.13
2018-10-07T19:00:41.666Z,95222.41
2018-10-07T19:03:11.583Z,95219.14
2018-10-07T19:05:41.685Z,95217.08
2018-10-07T19:08:11.213Z,95222.45
2018-10-07T19:10:40.989Z,95221.09
2018-10-07T19:13:10.794Z,95223.45
2018-10-07T19:15:40.559Z,95220.52
2018-10-07T19:18:10.077Z,95226.37
2018-10-07T19:20:39.773Z,95222.08
2018-10-07T19:23:09.256Z,95226.55
2018-10-07T19:25:38.842Z,95229.81
2018-10-07T19:28:08.898Z,95231.22
2018-10-07T19:30:38.889Z,95235.27
2018-10-07T19:33:08.611Z,95234.53
2018-10-07T19:35:38.359Z,95237.86
2018-10-07T19:38:08.414Z,95243.94
2018-10-07T19:40:38.251Z,95247.86
2018-10-07T19:43:08.306Z,95251.36
2018-10-07T19:45:38.058Z,95250.97
2018-10-07T19:48:08.782Z,95246.25
2018-10-07T19:50:38.618Z,95253.20
2018-10-07T19:53:08.225Z,95246.30
2018-10-07T19:55:37.735Z,95252.36
2018-10-07T19:58:07.691Z,95252.27
2018-10-07T20:00:37.141Z,95249.66
2018-10-07T20:03:07.299Z,95249.08
2018-10-07T20:05:37.113Z,95252.02
2018-10-07T20:08:06.960Z,95248.86
2018-10-07T20:10:36.382Z,95257.57
2018-10-07T20:13:06.321Z,95264.94
2018-10-07T20:15:35.670Z,95260.98
2018-10-07T20:18:05.392Z,95254.66
2018-10-07T20:20:39.154Z,95262.91
2018-10-07T20:23:08.922Z,95259.19
2018-10-07T20:25:39.362Z,95260.27
2018-10-07T20:28:09.176Z,95262.67
2018-10-07T20:30:39.092Z,95260.55
2018-10-07T20:33:09.433Z,95262.13
2018-10-07T20:35:39.129Z,95263.19
2018-10-07T20:38:09.037Z,95259.50
2018-10-07T20:40:39.022Z,95260.55
2018-10-07T20:43:08.498Z,95253.22
2018-10-07T20:45:37.932Z,95260.63
2018-10-07T20:48:07.510Z,95257.44
2018-10-07T20:50:36.930Z,95266.94
2018-10-07T20:53:06.590Z,95261.15
2018-10-07T20:55:36.024Z,95264.83
2018-10-07T20:58:06.017Z,95272.73
2018-10-07T21:00:35.379Z,95271.14
2018-10-07T21:03:05.158Z,95269.88
2018-10-07T21:05:34.609Z,95268.57
2018-10-07T21:08:04.277Z,95270.92
2018-10-07T21:10:36.327Z,95270.66
2018-10-07T21:13:05.944Z,95274.61
2018-10-07T21:15:35.358Z,95274.89
2018-10-07T21:18:05.381Z,95278.06
2018-10-07T21:20:34.876Z,95277.53
2018-10-07T21:23:04.365Z,95276.46
2018-10-07T21:25:34.095Z,95269.11
2018-10-07T21:28:03.781Z,95272.52
2018-10-07T21:30:33.278Z,95269.89
2018-10-07T21:33:03.235Z,95273.58
2018-10-07T21:35:32.663Z,95270.69
2018-10-07T21:38:02.260Z,95275.42
2018-10-07T21:40:31.992Z,95274.12
2018-10-07T21:43:01.474Z,95269.10
2018-10-07T21:45:31.040Z,95268.30
2018-10-07T21:48:01.073Z,95270.92
2018-10-07T21:50:30.963Z,95265.67
2018-10-07T21:53:00.688Z,95267.77
2018-10-07T21:55:30.503Z,95275.39
2018-10-07T21:57:59.979Z,95275.39
2018-10-07T22:00:29.920Z,95271.45
2018-10-07T22:03:00.055Z,95265.39
2018-10-07T22:05:29.833Z,95270.92
2018-10-07T22:07:59.542Z,95266.45
2018-10-07T22:10:29.438Z,95267.77
2018-10-07T22:12:59.189Z,95267.23
2018-10-07T22:15:29.012Z,95261.41
2018-10-07T22:17:58.822Z,95260.09
2018-10-07T22:20:28.518Z,95254.80
2018-10-07T22:22:57.956Z,95258.73
2018-10-07T22:25:27.518Z,95253.44
2018-10-07T22:27:57.244Z,95260.25
2018-10-07T22:30:26.922Z,95263.52
2018-10-07T22:32:56.908Z,95257.76
2018-10-07T22:35:26.661Z,95262.48
2018-10-07T22:37:56.113Z,95269.23
2018-10-07T22:40:26.094Z,95267.55
2018-10-07T22:42:55.693Z,95268.67
2018-10-07T22:45:25.408Z,95279.77
2018-10-07T22:47:55.210Z,95275.22
2018-10-07T22:50:24.649Z,95279.39
2018-10-07T22:52:54.351Z,95280.63
2018-10-07T22:55:24.398Z,95266.47
2018-10-07T22:57:54.027Z,95282.14
2018-10-07T23:00:23.823Z,95273.38
2018-10-07T23:02:54.492Z,95279.69
2018-10-07T23:05:24.410Z,95268.45
2018-10-07T23:07:53.926Z,95273.15
2018-10-07T23:10:23.794Z,95265.46
2018-10-07T23:12:53.375Z,95263.81
2018-10-07T23:15:23.104Z,95263.68
2018-10-07T23:17:53.086Z,95267.36
2018-10-07T23:20:22.831Z,95271.69
2018-10-07T23:22:52.514Z,95267.59
2018-10-07T23:25:23.910Z,95268.23
2018-10-07T23:27:53.470Z,95263.56
2018-10-07T23:30:23.147Z,95262.38
2018-10-07T23:32:53.737Z,95263.50
2018-10-07T23:35:23.742Z,95260.66
2018-10-07T23:37:53.527Z,95262.51
2018-10-07T23:40:23.394Z,95261.64
2018-10-07T23:42:53.122Z,95258.48
2018-10-07T23:45:22.909Z,95256.33
2018-10-07T23:47:52.761Z,95260.84
2018-10-07T23:50:22.507Z,95256.59
2018-10-07T23:52:52.121Z,95264.94
2018-10-07T23:55:22.246Z,95258.56
2018-10-07T23:57:51.814Z,95261.77
